createdAt,value
2019-03-09T00:00:39.792Z,6.40
2019-03-09T00:03:08.560Z,6.40
2019-03-09T00:05:37.157Z,6.40
2019-03-09T00:08:05.848Z,6.40
2019-03-09T00:10:34.375Z,6.40
2019-03-09T00:13:02.931Z,6.40
2019-03-09T00:15:31.818Z,6.40
2019-03-09T00:18:00.363Z,6.40
2019-03-09T00:20:28.893Z,6.40
2019-03-09T00:22:59.089Z,6.40
2019-03-09T00:25:29.251Z,6.30
2019-03-09T00:27:59.451Z,6.30
2019-03-09T00:30:29.617Z,6.30
2019-03-09T00:32:58.536Z,6.20
2019-03-09T00:35:27.059Z,6.20
2019-03-09T00:37:55.613Z,6.20
2019-03-09T00:40:24.148Z,6.10
2019-03-09T00:42:52.699Z,6.00
2019-03-09T00:45:21.245Z,6.00
2019-03-09T00:47:49.755Z,5.90
2019-03-09T00:50:18.619Z,5.80
2019-03-09T00:52:47.454Z,5.80
2019-03-09T00:55:15.999Z,5.80
2019-03-09T00:57:44.524Z,5.80
2019-03-09T01:00:16.011Z,5.80
2019-03-09T01:02:44.813Z,5.80
2019-03-09T01:05:13.831Z,5.90
2019-03-09T01:07:42.291Z,6.00
2019-03-09T01:10:15.792Z,6.10
2019-03-09T01:12:44.776Z,6.10
2019-03-09T01:15:14.568Z,6.20
2019-03-09T01:17:43.092Z,6.20
2019-03-09T01:20:14.584Z,6.20
2019-03-09T01:22:43.108Z,6.20
2019-03-09T01:25:12.328Z,6.20
2019-03-09T01:27:40.780Z,6.30
2019-03-09T01:30:12.412Z,6.30
2019-03-09T01:32:40.936Z,6.30
2019-03-09T01:35:09.532Z,6.40
2019-03-09T01:37:38.396Z,6.40
2019-03-09T01:40:12.499Z,6.50
2019-03-09T01:42:41.399Z,6.60
2019-03-09T01:45:12.669Z,6.60
2019-03-09T01:47:41.540Z,6.60
2019-03-09T01:50:10.732Z,6.60
2019-03-09T01:52:39.283Z,6.70
2019-03-09T01:55:12.698Z,6.60
2019-03-09T01:57:41.175Z,6.60
2019-03-09T02:00:14.781Z,6.60
2019-03-09T02:02:43.370Z,6.60
2019-03-09T02:05:12.087Z,6.60
2019-03-09T02:07:40.536Z,6.60
2019-03-09T02:10:10.652Z,6.70
2019-03-09T02:12:39.243Z,6.80
2019-03-09T02:15:12.504Z,6.70
2019-03-09T02:17:41.027Z,6.80
2019-03-09T02:20:12.288Z,6.80
2019-03-09T02:22:40.805Z,6.80
2019-03-09T02:25:10.495Z,6.80
2019-03-09T02:27:39.357Z,6.80
2019-03-09T02:30:15.456Z,6.80
2019-03-09T02:32:43.906Z,6.90
2019-03-09T02:35:16.767Z,6.90
2019-03-09T02:37:45.699Z,7.00
2019-03-09T02:40:23.209Z,7.00
2019-03-09T02:42:51.884Z,7.20
2019-03-09T02:45:22.248Z,7.30
2019-03-09T02:47:50.796Z,7.30
2019-03-09T02:50:19.323Z,7.30
2019-03-09T02:52:47.871Z,7.40
2019-03-09T02:55:16.400Z,7.40
2019-03-09T02:57:45.049Z,7.40
2019-03-09T03:00:16.674Z,7.50
2019-03-09T03:02:53.121Z,7.50
2019-03-09T03:05:21.641Z,7.50
2019-03-09T03:07:50.267Z,7.50
2019-03-09T03:10:18.848Z,7.50
2019-03-09T03:12:47.328Z,7.50
2019-03-09T03:15:30.176Z,7.50
2019-03-09T03:17:58.736Z,7.60
2019-03-09T03:20:27.397Z,7.60
2019-03-09T03:22:55.915Z,7.60
2019-03-09T03:25:24.804Z,7.60
2019-03-09T03:27:53.701Z,7.60
2019-03-09T03:30:22.252Z,7.60
2019-03-09T03:32:52.173Z,7.60
2019-03-09T03:35:20.704Z,7.60
2019-03-09T03:37:49.235Z,7.60
2019-03-09T03:40:18.054Z,7.60
2019-03-09T03:42:46.932Z,7.60
2019-03-09T03:45:15.725Z,7.70
2019-03-09T03:47:44.275Z,7.70
2019-03-09T03:50:12.936Z,7.70
2019-03-09T03:52:41.573Z,7.70
2019-03-09T03:55:10.936Z,7.70
2019-03-09T03:57:39.553Z,7.80
2019-03-09T04:00:11.081Z,7.70
2019-03-09T04:02:39.612Z,7.80
2019-03-09T04:05:08.309Z,7.80
2019-03-09T04:07:37.101Z,7.80
2019-03-09T04:10:08.866Z,7.80
2019-03-09T04:12:37.829Z,7.80
2019-03-09T04:15:07.279Z,7.80
2019-03-09T04:17:35.728Z,7.80
2019-03-09T04:20:06.301Z,7.80
2019-03-09T04:22:34.908Z,7.70
2019-03-09T04:25:04.000Z,7.60
2019-03-09T04:27:32.631Z,7.60
2019-03-09T04:30:01.074Z,7.50
2019-03-09T04:32:29.755Z,7.50
2019-03-09T04:34:58.280Z,7.40
2019-03-09T04:37:26.832Z,7.40
2019-03-09T04:39:55.284Z,7.40
2019-03-09T04:42:23.764Z,7.40
2019-03-09T04:44:52.292Z,7.40
2019-03-09T04:47:20.820Z,7.30
2019-03-09T04:49:49.367Z,7.30
2019-03-09T04:52:17.823Z,7.30
2019-03-09T04:54:46.380Z,7.30
2019-03-09T04:57:14.903Z,7.30
2019-03-09T04:59:43.373Z,7.30
2019-03-09T05:02:12.172Z,7.20
2019-03-09T05:04:45.467Z,7.20
2019-03-09T05:07:17.131Z,7.20
2019-03-09T05:09:57.471Z,7.10
2019-03-09T05:12:26.264Z,7.10
2019-03-09T05:14:54.719Z,7.10
2019-03-09T05:17:23.340Z,7.10
2019-03-09T05:19:51.868Z,7.00
2019-03-09T05:22:20.483Z,7.00
2019-03-09T05:24:48.935Z,6.90
2019-03-09T05:27:17.774Z,6.80
2019-03-09T05:29:46.291Z,6.80
2019-03-09T05:32:15.145Z,6.70
2019-03-09T05:34:44.032Z,6.70
2019-03-09T05:37:12.483Z,6.60
2019-03-09T05:39:40.959Z,6.60
2019-03-09T05:42:09.412Z,6.70
2019-03-09T05:44:37.888Z,6.70
2019-03-09T05:47:06.669Z,6.60
2019-03-09T05:49:35.218Z,6.60
2019-03-09T05:52:22.195Z,6.60
2019-03-09T05:54:50.744Z,6.60
2019-03-09T05:57:19.267Z,6.60
2019-03-09T05:59:47.735Z,6.60
2019-03-09T06:02:16.184Z,6.60
2019-03-09T06:04:44.630Z,6.60
2019-03-09T06:07:13.107Z,6.60
2019-03-09T06:09:41.583Z,6.70
2019-03-09T06:12:10.032Z,6.70
2019-03-09T06:14:38.555Z,6.70
2019-03-09T06:17:07.043Z,6.60
2019-03-09T06:19:35.820Z,6.70
2019-03-09T06:22:04.293Z,6.60
2019-03-09T06:24:32.744Z,6.60
2019-03-09T06:27:01.295Z,6.70
2019-03-09T06:29:29.748Z,6.70
2019-03-09T06:32:33.011Z,6.70
2019-03-09T06:35:01.752Z,6.70
2019-03-09T06:37:31.971Z,6.70
2019-03-09T06:40:00.491Z,6.70
2019-03-09T06:42:38.569Z,6.80
2019-03-09T06:45:09.840Z,6.80
2019-03-09T06:47:38.364Z,6.80
2019-03-09T06:50:15.133Z,6.90
2019-03-09T06:52:43.578Z,6.90
2019-03-09T06:55:13.795Z,6.90
2019-03-09T06:57:42.248Z,6.90
2019-03-09T07:00:25.843Z,6.90
2019-03-09T07:02:54.295Z,6.90
2019-03-09T07:05:22.823Z,6.90
2019-03-09T07:07:51.371Z,6.90
2019-03-09T07:10:20.145Z,6.90
2019-03-09T07:12:48.624Z,7.00
2019-03-09T07:15:25.456Z,7.00
2019-03-09T07:17:56.275Z,7.10
2019-03-09T07:20:24.736Z,7.10
2019-03-09T07:22:53.268Z,7.20
2019-03-09T07:25:21.818Z,7.30
2019-03-09T07:28:04.812Z,7.30
2019-03-09T07:30:33.363Z,7.40
2019-03-09T07:33:02.035Z,7.50
2019-03-09T07:35:30.656Z,7.50
2019-03-09T07:37:59.103Z,7.60
2019-03-09T07:40:27.651Z,7.60
2019-03-09T07:42:56.099Z,7.60
2019-03-09T07:45:24.577Z,7.70
2019-03-09T07:47:53.025Z,7.70
2019-03-09T07:50:21.504Z,7.80
2019-03-09T07:52:50.027Z,7.80
2019-03-09T07:55:20.251Z,7.90
2019-03-09T07:57:48.701Z,7.90
2019-03-09T08:00:22.699Z,8.10
2019-03-09T08:02:51.151Z,8.10
2019-03-09T08:05:19.623Z,8.20
2019-03-09T08:07:48.151Z,8.30
2019-03-09T08:10:25.148Z,8.40
2019-03-09T08:12:53.595Z,8.50
2019-03-09T08:15:22.727Z,8.60
2019-03-09T08:17:51.387Z,8.60
2019-03-09T08:20:22.078Z,8.60
2019-03-09T08:22:50.594Z,8.70
2019-03-09T08:25:21.746Z,8.70
2019-03-09T08:27:50.302Z,8.80
2019-03-09T08:30:31.018Z,8.90
2019-03-09T08:32:59.564Z,8.90
2019-03-09T08:35:28.088Z,8.90
2019-03-09T08:37:56.567Z,9.00
2019-03-09T08:40:25.091Z,9.10
2019-03-09T08:42:53.616Z,9.20
2019-03-09T08:45:22.390Z,9.30
2019-03-09T08:47:52.462Z,9.30
2019-03-09T08:50:22.861Z,9.40
2019-03-09T08:52:51.619Z,9.30
2019-03-09T08:55:20.392Z,9.30
2019-03-09T08:57:48.940Z,9.40
2019-03-09T09:00:30.510Z,9.50
2019-03-09T09:02:59.385Z,9.70
2019-03-09T09:05:27.972Z,9.80
2019-03-09T09:07:56.538Z,9.90
2019-03-09T09:10:25.136Z,10.10
2019-03-09T09:12:53.691Z,10.40
2019-03-09T09:15:22.324Z,10.40
2019-03-09T09:17:50.877Z,10.60
2019-03-09T09:20:21.743Z,11.50
2019-03-09T09:22:50.303Z,12.10
2019-03-09T09:25:18.819Z,12.60
2019-03-09T09:27:47.367Z,12.30
2019-03-09T09:30:23.834Z,12.20
2019-03-09T09:32:52.461Z,12.00
2019-03-09T09:35:21.221Z,11.80
2019-03-09T09:37:49.829Z,11.80
2019-03-09T09:40:20.721Z,11.90
2019-03-09T09:42:49.750Z,11.80
2019-03-09T09:45:18.741Z,11.40
2019-03-09T09:47:47.199Z,11.30
2019-03-09T09:50:16.969Z,11.00
2019-03-09T09:52:45.707Z,10.90
2019-03-09T09:55:16.108Z,10.70
2019-03-09T09:57:44.708Z,10.70
2019-03-09T10:00:16.109Z,10.60
2019-03-09T10:02:44.640Z,10.60
2019-03-09T10:05:13.467Z,10.50
2019-03-09T10:07:41.924Z,10.50
2019-03-09T10:10:21.414Z,10.50
2019-03-09T10:12:50.175Z,10.60
2019-03-09T10:15:27.860Z,10.60
2019-03-09T10:17:56.388Z,10.60
2019-03-09T10:20:24.943Z,10.70
2019-03-09T10:23:03.522Z,10.70
2019-03-09T10:25:23.815Z,10.60
2019-03-09T10:27:52.411Z,10.60
2019-03-09T10:30:23.071Z,10.50
2019-03-09T10:32:51.596Z,10.50
2019-03-09T10:35:20.502Z,10.60
2019-03-09T10:37:49.881Z,10.60
2019-03-09T10:40:18.845Z,10.70
2019-03-09T10:42:47.476Z,10.70
2019-03-09T10:45:20.857Z,10.60
2019-03-09T10:47:50.248Z,10.60
2019-03-09T10:50:19.745Z,10.50
2019-03-09T10:52:48.395Z,10.50
2019-03-09T10:55:22.134Z,10.50
2019-03-09T10:57:50.823Z,10.50
2019-03-09T11:00:21.892Z,10.60
2019-03-09T11:02:50.372Z,10.60
2019-03-09T11:05:18.900Z,10.70
2019-03-09T11:07:47.518Z,10.70
2019-03-09T11:10:16.116Z,10.70
2019-03-09T11:12:44.672Z,10.80
2019-03-09T11:15:13.468Z,11.00
2019-03-09T11:17:41.952Z,11.20
2019-03-09T11:20:15.035Z,11.30
2019-03-09T11:22:43.661Z,11.40
2019-03-09T11:25:12.729Z,11.40
2019-03-09T11:27:41.394Z,11.40
2019-03-09T11:30:15.639Z,11.40
2019-03-09T11:32:44.474Z,11.20
2019-03-09T11:35:13.200Z,11.30
2019-03-09T11:37:41.657Z,11.50
2019-03-09T11:40:10.424Z,11.60
2019-03-09T11:42:38.952Z,11.60
2019-03-09T11:45:13.600Z,11.60
2019-03-09T11:47:42.199Z,11.90
2019-03-09T11:50:12.991Z,12.20
2019-03-09T11:52:41.451Z,12.20
2019-03-09T11:55:11.451Z,12.00
2019-03-09T11:57:39.904Z,11.80
2019-03-09T12:00:15.921Z,11.70
2019-03-09T12:02:44.780Z,11.70
2019-03-09T12:05:13.379Z,11.60
2019-03-09T12:07:41.859Z,11.60
2019-03-09T12:10:11.380Z,11.50
2019-03-09T12:12:39.975Z,11.40
2019-03-09T12:15:11.292Z,11.30
2019-03-09T12:17:39.876Z,11.20
2019-03-09T12:20:10.611Z,11.10
2019-03-09T12:22:39.168Z,11.10
2019-03-09T12:25:10.399Z,11.00
2019-03-09T12:27:39.083Z,11.10
2019-03-09T12:30:15.928Z,11.10
2019-03-09T12:32:44.550Z,11.20
2019-03-09T12:35:13.445Z,11.20
2019-03-09T12:37:42.034Z,11.20
2019-03-09T12:40:16.739Z,11.10
2019-03-09T12:42:45.221Z,11.20
2019-03-09T12:45:14.293Z,11.10
2019-03-09T12:47:42.855Z,11.10
2019-03-09T12:50:14.315Z,11.00
2019-03-09T12:52:42.872Z,11.00
2019-03-09T12:55:11.468Z,11.00
2019-03-09T12:57:40.095Z,11.10
2019-03-09T13:00:11.828Z,11.00
2019-03-09T13:02:40.433Z,11.00
2019-03-09T13:05:08.988Z,11.00
2019-03-09T13:07:37.547Z,10.90
2019-03-09T13:10:08.040Z,10.80
2019-03-09T13:12:36.865Z,10.80
2019-03-09T13:15:07.192Z,10.80
2019-03-09T13:17:35.652Z,10.70
2019-03-09T13:20:06.343Z,10.70
2019-03-09T13:22:35.092Z,10.70
2019-03-09T13:25:04.640Z,10.70
2019-03-09T13:27:33.388Z,10.60
2019-03-09T13:30:01.962Z,10.60
2019-03-09T13:32:30.483Z,10.50
2019-03-09T13:34:58.941Z,10.40
2019-03-09T13:37:27.504Z,10.40
2019-03-09T13:39:56.407Z,10.30
2019-03-09T13:42:24.896Z,10.20
2019-03-09T13:44:53.420Z,10.20
2019-03-09T13:47:21.905Z,10.20
2019-03-09T13:49:50.432Z,10.30
2019-03-09T13:52:18.915Z,10.30
2019-03-09T13:54:47.379Z,10.30
2019-03-09T13:57:15.940Z,10.40
2019-03-09T13:59:44.468Z,10.60
2019-03-09T14:02:13.282Z,10.70
2019-03-09T14:04:42.146Z,10.70
2019-03-09T14:07:10.707Z,10.60
2019-03-09T14:09:39.236Z,10.60
2019-03-09T14:12:07.772Z,10.60
2019-03-09T14:14:36.275Z,10.60
2019-03-09T14:17:04.783Z,10.70
2019-03-09T14:19:33.544Z,10.70
2019-03-09T14:22:02.440Z,10.60
2019-03-09T14:24:31.066Z,10.50
2019-03-09T14:26:59.595Z,10.50
2019-03-09T14:29:28.412Z,10.60
2019-03-09T14:31:56.876Z,10.80
2019-03-09T14:34:25.458Z,11.10
2019-03-09T14:36:54.036Z,11.10
2019-03-09T14:39:22.504Z,11.10
2019-03-09T14:41:51.061Z,11.30
2019-03-09T14:44:19.596Z,11.80
2019-03-09T14:46:48.151Z,12.00
2019-03-09T14:49:16.635Z,11.90
2019-03-09T14:51:45.161Z,12.00
2019-03-09T14:54:13.626Z,12.00
2019-03-09T14:56:42.180Z,12.00
2019-03-09T14:59:10.711Z,11.80
2019-03-09T15:01:39.191Z,11.60
2019-03-09T15:04:07.723Z,11.40
2019-03-09T15:06:36.279Z,11.40
2019-03-09T15:09:05.467Z,11.40
2019-03-09T15:11:34.024Z,11.40
2019-03-09T15:14:02.568Z,11.30
2019-03-09T15:16:31.084Z,11.20
2019-03-09T15:18:59.646Z,11.40
2019-03-09T15:21:28.199Z,11.40
2019-03-09T15:23:56.655Z,11.40
2019-03-09T15:26:25.116Z,11.40
2019-03-09T15:28:53.775Z,11.20
2019-03-09T15:31:22.677Z,11.10
2019-03-09T15:33:51.164Z,10.90
2019-03-09T15:36:19.695Z,10.80
2019-03-09T15:38:48.171Z,10.70
2019-03-09T15:41:16.703Z,10.60
2019-03-09T15:43:45.423Z,10.60
2019-03-09T15:46:13.956Z,10.60
2019-03-09T15:48:42.623Z,10.60
2019-03-09T15:51:11.147Z,10.70
2019-03-09T15:53:39.636Z,10.70
2019-03-09T15:56:08.304Z,10.70
2019-03-09T15:58:37.359Z,10.60
2019-03-09T16:01:06.155Z,10.50
2019-03-09T16:03:34.640Z,10.40
2019-03-09T16:06:03.246Z,10.40
2019-03-09T16:08:31.780Z,10.20
2019-03-09T16:11:00.408Z,10.10
2019-03-09T16:13:29.217Z,10.10
2019-03-09T16:15:57.871Z,10.00
2019-03-09T16:18:26.319Z,10.00
2019-03-09T16:20:54.872Z,10.00
2019-03-09T16:23:23.404Z,10.00
2019-03-09T16:25:52.131Z,10.00
2019-03-09T16:28:20.658Z,10.00
2019-03-09T16:30:49.211Z,10.00
2019-03-09T16:33:17.671Z,10.00
2019-03-09T16:35:46.152Z,10.00
2019-03-09T16:38:14.675Z,10.00
2019-03-09T16:40:43.161Z,10.00
2019-03-09T16:43:11.696Z,10.10
2019-03-09T16:45:40.292Z,10.10
2019-03-09T16:48:08.844Z,10.20
2019-03-09T16:50:37.309Z,10.30
2019-03-09T16:53:05.877Z,10.30
2019-03-09T16:55:34.395Z,10.30
2019-03-09T16:58:02.947Z,10.40
2019-03-09T17:00:31.480Z,10.40
2019-03-09T17:03:00.038Z,10.40
2019-03-09T17:05:28.713Z,10.40
2019-03-09T17:07:57.264Z,10.40
2019-03-09T17:10:25.716Z,10.50
2019-03-09T17:12:54.168Z,10.50
2019-03-09T17:15:25.975Z,10.50
2019-03-09T17:17:54.508Z,10.60
2019-03-09T17:20:22.983Z,10.60
2019-03-09T17:22:51.437Z,10.70
2019-03-09T17:25:19.921Z,10.70
2019-03-09T17:27:48.515Z,10.80
2019-03-09T17:30:21.552Z,10.80
2019-03-09T17:32:50.253Z,10.80
2019-03-09T17:35:18.807Z,10.80
2019-03-09T17:37:47.613Z,10.80
2019-03-09T17:40:17.624Z,10.80
2019-03-09T17:42:46.292Z,10.80
2019-03-09T17:45:22.373Z,10.80
2019-03-09T17:47:50.904Z,10.80
2019-03-09T17:50:19.856Z,10.80
2019-03-09T17:52:48.344Z,10.80
2019-03-09T17:55:16.871Z,10.80
2019-03-09T17:57:45.428Z,10.80
2019-03-09T18:00:25.101Z,10.80
2019-03-09T18:02:53.651Z,10.80
2019-03-09T18:05:22.541Z,10.90
2019-03-09T18:07:51.035Z,10.90
2019-03-09T18:10:31.703Z,10.90
2019-03-09T18:13:00.256Z,10.90
2019-03-09T18:15:28.865Z,10.90
2019-03-09T18:17:57.409Z,10.90
2019-03-09T18:20:25.872Z,11.00
2019-03-09T18:22:54.423Z,11.00
2019-03-09T18:25:22.879Z,11.00
2019-03-09T18:27:51.403Z,11.00
2019-03-09T18:30:19.951Z,11.00
2019-03-09T18:32:48.407Z,11.00
2019-03-09T18:35:16.891Z,11.00
2019-03-09T18:37:45.418Z,11.00
2019-03-09T18:40:17.673Z,11.00
2019-03-09T18:42:46.275Z,11.00
2019-03-09T18:45:19.763Z,11.00
2019-03-09T18:47:48.359Z,11.10
2019-03-09T18:50:16.987Z,11.10
2019-03-09T18:52:45.511Z,11.00
2019-03-09T18:55:14.129Z,11.00
2019-03-09T18:57:42.656Z,11.00
2019-03-09T19:00:21.911Z,11.00
2019-03-09T19:02:50.386Z,11.00
2019-03-09T19:05:19.060Z,10.90
2019-03-09T19:07:47.583Z,11.00
2019-03-09T19:10:18.551Z,11.00
2019-03-09T19:12:47.101Z,11.00
2019-03-09T19:15:19.043Z,11.00
2019-03-09T19:17:47.663Z,11.00
2019-03-09T19:20:17.352Z,11.00
2019-03-09T19:22:45.972Z,11.00
2019-03-09T19:25:15.237Z,11.00
2019-03-09T19:27:43.748Z,11.00
2019-03-09T19:30:22.676Z,11.00
2019-03-09T19:32:59.857Z,11.00
2019-03-09T19:35:21.474Z,11.00
2019-03-09T19:37:50.032Z,11.00
2019-03-09T19:40:19.907Z,11.00
2019-03-09T19:42:48.676Z,11.00
2019-03-09T19:45:18.572Z,11.00
2019-03-09T19:47:47.045Z,11.00
2019-03-09T19:50:29.323Z,11.00
2019-03-09T19:52:59.194Z,10.90
2019-03-09T19:55:28.320Z,10.80
2019-03-09T19:57:56.943Z,10.70
2019-03-09T20:00:25.428Z,10.60
2019-03-09T20:02:54.258Z,10.30
2019-03-09T20:05:22.823Z,10.10
2019-03-09T20:07:51.339Z,9.90
2019-03-09T20:10:21.373Z,9.80
2019-03-09T20:12:50.428Z,9.70
2019-03-09T20:15:20.222Z,9.60
2019-03-09T20:17:48.779Z,9.60
2019-03-09T20:20:18.352Z,9.60
2019-03-09T20:22:47.327Z,9.50
2019-03-09T20:25:15.897Z,9.40
2019-03-09T20:27:44.455Z,9.40
2019-03-09T20:30:20.372Z,9.30
2019-03-09T20:32:48.943Z,9.30
2019-03-09T20:35:17.801Z,9.30
2019-03-09T20:37:46.260Z,9.20
2019-03-09T20:40:18.320Z,9.20
2019-03-09T20:42:46.917Z,9.20
2019-03-09T20:45:16.703Z,9.20
2019-03-09T20:47:45.237Z,9.10
2019-03-09T20:50:18.108Z,9.10
2019-03-09T20:52:46.632Z,9.10
2019-03-09T20:55:15.187Z,9.10
2019-03-09T20:57:43.786Z,9.00
2019-03-09T21:00:20.485Z,9.00
2019-03-09T21:02:49.451Z,9.00
2019-03-09T21:05:18.142Z,9.00
2019-03-09T21:07:46.662Z,9.00
2019-03-09T21:10:20.111Z,9.00
2019-03-09T21:12:59.752Z,9.00
2019-03-09T21:15:28.341Z,9.00
2019-03-09T21:17:56.922Z,8.90
2019-03-09T21:20:25.491Z,9.00
2019-03-09T21:22:54.018Z,9.00
2019-03-09T21:25:22.640Z,9.00
2019-03-09T21:27:51.161Z,8.90
2019-03-09T21:30:19.781Z,8.90
2019-03-09T21:32:48.302Z,8.90
2019-03-09T21:35:16.960Z,8.90
2019-03-09T21:37:45.556Z,8.90
2019-03-09T21:40:14.196Z,8.80
2019-03-09T21:42:42.726Z,8.80
2019-03-09T21:45:15.313Z,8.80
2019-03-09T21:47:43.842Z,8.80
2019-03-09T21:50:15.475Z,8.80
2019-03-09T21:52:43.995Z,8.80
2019-03-09T21:55:13.712Z,8.80
2019-03-09T21:57:42.239Z,8.80
2019-03-09T22:00:13.772Z,8.80
2019-03-09T22:02:42.316Z,8.80
2019-03-09T22:05:12.411Z,8.80
2019-03-09T22:07:41.204Z,8.70
2019-03-09T22:10:11.171Z,8.70
2019-03-09T22:12:39.735Z,8.70
2019-03-09T22:15:16.166Z,8.70
2019-03-09T22:17:44.788Z,8.70
2019-03-09T22:20:14.483Z,8.70
2019-03-09T22:22:43.475Z,8.70
2019-03-09T22:25:14.516Z,8.60
2019-03-09T22:27:43.340Z,8.60
2019-03-09T22:30:16.260Z,8.60
2019-03-09T22:32:44.814Z,8.60
2019-03-09T22:35:14.107Z,8.60
2019-03-09T22:37:42.823Z,8.60
2019-03-09T22:40:13.760Z,8.70
2019-03-09T22:42:42.384Z,8.80
2019-03-09T22:45:15.084Z,9.00
2019-03-09T22:47:43.675Z,9.20
2019-03-09T22:50:20.495Z,9.40
2019-03-09T22:52:49.155Z,9.50
2019-03-09T22:55:17.772Z,9.70
2019-03-09T22:57:46.230Z,9.80
2019-03-09T23:00:17.856Z,9.80
2019-03-09T23:02:46.313Z,9.90
2019-03-09T23:05:15.276Z,10.00
2019-03-09T23:07:43.803Z,10.00
2019-03-09T23:10:17.627Z,10.10
2019-03-09T23:12:46.154Z,10.10
2019-03-09T23:15:16.329Z,10.10
2019-03-09T23:17:45.603Z,10.10
2019-03-09T23:20:15.471Z,10.20
2019-03-09T23:22:44.028Z,10.20
2019-03-09T23:25:13.820Z,10.20
2019-03-09T23:27:42.439Z,10.20
2019-03-09T23:30:19.261Z,10.30
2019-03-09T23:32:47.888Z,10.30
2019-03-09T23:35:16.569Z,10.20
2019-03-09T23:37:46.759Z,10.30
2019-03-09T23:40:19.209Z,10.30
2019-03-09T23:42:47.779Z,10.30
2019-03-09T23:45:24.235Z,10.30
2019-03-09T23:47:53.056Z,10.30
2019-03-09T23:50:21.730Z,10.30
2019-03-09T23:52:50.431Z,10.30
2019-03-09T23:55:22.421Z,10.30
2019-03-09T23:57:50.051Z,10.30
